sensor_id;sensor_type;location;lat;lon;timestamp;P1;durP1;ratioP1;P2;durP2;ratioP2
17141;SDS011;32805;53.556;9.944;2022-12-29T00:01:44;5.43;;;3.88;;
17141;SDS011;32805;53.556;9.944;2022-12-29T00:04:12;4.18;;;3.65;;
17141;SDS011;32805;53.556;9.944;2022-12-29T00:06:41;4.43;;;3.63;;
17141;SDS011;32805;53.556;9.944;2022-12-29T00:09:11;3.85;;;3.50;;
17141;SDS011;32805;53.556;9.944;2022-12-29T00:11:40;3.80;;;3.50;;
17141;SDS011;32805;53.556;9.944;2022-12-29T00:14:08;4.03;;;3.60;;
17141;SDS011;32805;53.556;9.944;2022-12-29T00:16:53;5.13;;;3.70;;
17141;SDS011;32805;53.556;9.944;2022-12-29T00:19:21;4.25;;;3.85;;
17141;SDS011;32805;53.556;9.944;2022-12-29T00:22:07;3.83;;;3.38;;
17141;SDS011;32805;53.556;9.944;2022-12-29T00:24:55;5.53;;;3.75;;
17141;SDS011;32805;53.556;9.944;2022-12-29T00:27:43;4.80;;;3.85;;
17141;SDS011;32805;53.556;9.944;2022-12-29T00:30:33;4.35;;;3.70;;
17141;SDS011;32805;53.556;9.944;2022-12-29T00:33:21;3.97;;;3.67;;
17141;SDS011;32805;53.556;9.944;2022-12-29T00:36:11;3.83;;;3.42;;
17141;SDS011;32805;53.556;9.944;2022-12-29T00:38:45;4.15;;;3.67;;
17141;SDS011;32805;53.556;9.944;2022-12-29T00:41:34;4.28;;;3.80;;
17141;SDS011;32805;53.556;9.944;2022-12-29T00:44:19;4.30;;;3.90;;
17141;SDS011;32805;53.556;9.944;2022-12-29T00:46:47;3.70;;;3.38;;
17141;SDS011;32805;53.556;9.944;2022-12-29T00:49:15;5.95;;;4.03;;
17141;SDS011;32805;53.556;9.944;2022-12-29T00:51:57;4.20;;;3.80;;
17141;SDS011;32805;53.556;9.944;2022-12-29T00:54:27;3.95;;;3.50;;
17141;SDS011;32805;53.556;9.944;2022-12-29T00:56:57;3.90;;;3.50;;
17141;SDS011;32805;53.556;9.944;2022-12-29T00:59:25;4.43;;;3.42;;
17141;SDS011;32805;53.556;9.944;2022-12-29T01:01:55;6.28;;;4.05;;
17141;SDS011;32805;53.556;9.944;2022-12-29T01:04:24;5.00;;;3.80;;
17141;SDS011;32805;53.556;9.944;2022-12-29T01:06:53;3.97;;;3.53;;
17141;SDS011;32805;53.556;9.944;2022-12-29T01:09:20;4.97;;;3.47;;
17141;SDS011;32805;53.556;9.944;2022-12-29T01:12:08;4.03;;;3.72;;
17141;SDS011;32805;53.556;9.944;2022-12-29T01:14:37;5.30;;;3.65;;
17141;SDS011;32805;53.556;9.944;2022-12-29T01:17:05;5.57;;;4.15;;
17141;SDS011;32805;53.556;9.944;2022-12-29T01:19:33;4.28;;;3.72;;
17141;SDS011;32805;53.556;9.944;2022-12-29T01:22:00;3.63;;;3.33;;
17141;SDS011;32805;53.556;9.944;2022-12-29T01:24:28;3.58;;;3.28;;
17141;SDS011;32805;53.556;9.944;2022-12-29T01:26:56;3.40;;;3.00;;
17141;SDS011;32805;53.556;9.944;2022-12-29T01:29:25;4.63;;;3.50;;
17141;SDS011;32805;53.556;9.944;2022-12-29T01:31:52;4.25;;;3.85;;
17141;SDS011;32805;53.556;9.944;2022-12-29T01:34:21;5.57;;;3.90;;
17141;SDS011;32805;53.556;9.944;2022-12-29T01:36:49;3.65;;;3.35;;
17141;SDS011;32805;53.556;9.944;2022-12-29T01:39:16;4.13;;;3.67;;
17141;SDS011;32805;53.556;9.944;2022-12-29T01:41:44;4.00;;;3.70;;
17141;SDS011;32805;53.556;9.944;2022-12-29T01:47:25;4.70;;;3.92;;
17141;SDS011;32805;53.556;9.944;2022-12-29T01:49:57;4.80;;;4.20;;
17141;SDS011;32805;53.556;9.944;2022-12-29T01:52:29;4.05;;;3.65;;
17141;SDS011;32805;53.556;9.944;2022-12-29T01:55:00;4.25;;;3.85;;
17141;SDS011;32805;53.556;9.944;2022-12-29T01:57:31;5.43;;;3.97;;
17141;SDS011;32805;53.556;9.944;2022-12-29T02:00:04;4.35;;;3.95;;
17141;SDS011;32805;53.556;9.944;2022-12-29T02:02:40;4.65;;;4.25;;
17141;SDS011;32805;53.556;9.944;2022-12-29T02:05:14;4.55;;;4.15;;
17141;SDS011;32805;53.556;9.944;2022-12-29T02:07:47;5.47;;;4.90;;
17141;SDS011;32805;53.556;9.944;2022-12-29T02:10:18;5.35;;;4.30;;
17141;SDS011;32805;53.556;9.944;2022-12-29T02:12:47;4.72;;;4.28;;
17141;SDS011;32805;53.556;9.944;2022-12-29T02:15:16;4.82;;;4.38;;
17141;SDS011;32805;53.556;9.944;2022-12-29T02:17:50;4.93;;;4.28;;
17141;SDS011;32805;53.556;9.944;2022-12-29T02:20:37;4.70;;;4.28;;
17141;SDS011;32805;53.556;9.944;2022-12-29T02:26:29;4.30;;;3.70;;
17141;SDS011;32805;53.556;9.944;2022-12-29T02:29:19;4.25;;;3.92;;
17141;SDS011;32805;53.556;9.944;2022-12-29T02:32:24;3.97;;;3.65;;
17141;SDS011;32805;53.556;9.944;2022-12-29T02:34:57;4.38;;;3.60;;
17141;SDS011;32805;53.556;9.944;2022-12-29T02:37:34;5.03;;;3.97;;
17141;SDS011;32805;53.556;9.944;2022-12-29T02:40:12;3.90;;;3.60;;
17141;SDS011;32805;53.556;9.944;2022-12-29T02:42:51;3.38;;;3.15;;
17141;SDS011;32805;53.556;9.944;2022-12-29T02:45:27;4.43;;;4.03;;
17141;SDS011;32805;53.556;9.944;2022-12-29T02:48:03;4.38;;;3.83;;
17141;SDS011;32805;53.556;9.944;2022-12-29T02:50:36;4.32;;;3.92;;
17141;SDS011;32805;53.556;9.944;2022-12-29T02:53:06;4.25;;;3.85;;
17141;SDS011;32805;53.556;9.944;2022-12-29T02:55:36;4.32;;;3.92;;
17141;SDS011;32805;53.556;9.944;2022-12-29T02:58:19;4.10;;;3.70;;
17141;SDS011;32805;53.556;9.944;2022-12-29T03:00:54;4.32;;;3.92;;
17141;SDS011;32805;53.556;9.944;2022-12-29T03:03:36;5.05;;;4.00;;
17141;SDS011;32805;53.556;9.944;2022-12-29T03:06:22;4.60;;;4.18;;
17141;SDS011;32805;53.556;9.944;2022-12-29T03:09:00;3.92;;;3.63;;
17141;SDS011;32805;53.556;9.944;2022-12-29T03:11:46;4.05;;;3.75;;
17141;SDS011;32805;53.556;9.944;2022-12-29T03:14:39;4.63;;;3.92;;
17141;SDS011;32805;53.556;9.944;2022-12-29T03:17:39;4.40;;;3.50;;
17141;SDS011;32805;53.556;9.944;2022-12-29T03:20:14;3.85;;;3.45;;
17141;SDS011;32805;53.556;9.944;2022-12-29T03:22:49;3.97;;;3.58;;
17141;SDS011;32805;53.556;9.944;2022-12-29T03:25:24;4.40;;;4.00;;
17141;SDS011;32805;53.556;9.944;2022-12-29T03:27:57;4.35;;;3.58;;
17141;SDS011;32805;53.556;9.944;2022-12-29T03:30:30;4.78;;;3.85;;
17141;SDS011;32805;53.556;9.944;2022-12-29T03:33:02;4.35;;;3.53;;
17141;SDS011;32805;53.556;9.944;2022-12-29T03:35:34;3.60;;;3.30;;
17141;SDS011;32805;53.556;9.944;2022-12-29T03:38:09;3.85;;;3.53;;
17141;SDS011;32805;53.556;9.944;2022-12-29T03:40:39;5.88;;;3.60;;
17141;SDS011;32805;53.556;9.944;2022-12-29T03:43:10;3.85;;;3.50;;
17141;SDS011;32805;53.556;9.944;2022-12-29T03:45:39;4.35;;;3.70;;
17141;SDS011;32805;53.556;9.944;2022-12-29T03:48:08;3.95;;;3.25;;
17141;SDS011;32805;53.556;9.944;2022-12-29T03:50:40;3.47;;;3.17;;
17141;SDS011;32805;53.556;9.944;2022-12-29T03:53:08;3.65;;;3.38;;
17141;SDS011;32805;53.556;9.944;2022-12-29T03:55:37;4.32;;;3.20;;
17141;SDS011;32805;53.556;9.944;2022-12-29T03:58:05;3.38;;;2.78;;
17141;SDS011;32805;53.556;9.944;2022-12-29T04:00:59;3.38;;;3.08;;
17141;SDS011;32805;53.556;9.944;2022-12-29T04:03:29;3.00;;;2.80;;
17141;SDS011;32805;53.556;9.944;2022-12-29T04:05:58;5.05;;;3.30;;
17141;SDS011;32805;53.556;9.944;2022-12-29T04:08:32;3.13;;;2.92;;
17141;SDS011;32805;53.556;9.944;2022-12-29T04:11:00;3.42;;;2.85;;
17141;SDS011;32805;53.556;9.944;2022-12-29T04:13:28;3.13;;;2.55;;
17141;SDS011;32805;53.556;9.944;2022-12-29T04:15:55;3.25;;;2.90;;
17141;SDS011;32805;53.556;9.944;2022-12-29T04:18:23;3.72;;;2.53;;
17141;SDS011;32805;53.556;9.944;2022-12-29T04:20:51;5.20;;;2.55;;
17141;SDS011;32805;53.556;9.944;2022-12-29T04:23:33;2.63;;;2.42;;
17141;SDS011;32805;53.556;9.944;2022-12-29T04:26:05;2.72;;;2.53;;
17141;SDS011;32805;53.556;9.944;2022-12-29T04:28:45;2.92;;;2.72;;
17141;SDS011;32805;53.556;9.944;2022-12-29T04:31:41;2.83;;;2.63;;
17141;SDS011;32805;53.556;9.944;2022-12-29T04:34:09;2.53;;;2.30;;
17141;SDS011;32805;53.556;9.944;2022-12-29T04:36:37;2.33;;;2.15;;
17141;SDS011;32805;53.556;9.944;2022-12-29T04:39:07;2.33;;;2.13;;
17141;SDS011;32805;53.556;9.944;2022-12-29T04:41:37;2.22;;;2.13;;
17141;SDS011;32805;53.556;9.944;2022-12-29T04:44:07;2.50;;;2.30;;
17141;SDS011;32805;53.556;9.944;2022-12-29T04:46:37;4.15;;;1.90;;
17141;SDS011;32805;53.556;9.944;2022-12-29T04:49:30;2.33;;;2.15;;
17141;SDS011;32805;53.556;9.944;2022-12-29T04:52:20;2.08;;;1.80;;
17141;SDS011;32805;53.556;9.944;2022-12-29T04:54:49;2.00;;;1.90;;
17141;SDS011;32805;53.556;9.944;2022-12-29T04:57:19;2.20;;;2.00;;
17141;SDS011;32805;53.556;9.944;2022-12-29T04:59:51;2.00;;;1.80;;
17141;SDS011;32805;53.556;9.944;2022-12-29T05:02:19;2.05;;;1.42;;
17141;SDS011;32805;53.556;9.944;2022-12-29T05:04:48;1.30;;;1.10;;
17141;SDS011;32805;53.556;9.944;2022-12-29T05:07:16;1.80;;;1.70;;
17141;SDS011;32805;53.556;9.944;2022-12-29T05:09:44;1.80;;;1.38;;
17141;SDS011;32805;53.556;9.944;2022-12-29T05:12:13;1.92;;;1.27;;
17141;SDS011;32805;53.556;9.944;2022-12-29T05:14:52;1.63;;;1.52;;
17141;SDS011;32805;53.556;9.944;2022-12-29T05:17:19;2.15;;;1.73;;
17141;SDS011;32805;53.556;9.944;2022-12-29T05:19:47;1.90;;;1.70;;
17141;SDS011;32805;53.556;9.944;2022-12-29T05:22:15;1.73;;;1.63;;
17141;SDS011;32805;53.556;9.944;2022-12-29T05:24:44;2.50;;;2.08;;
17141;SDS011;32805;53.556;9.944;2022-12-29T05:27:11;2.20;;;2.00;;
17141;SDS011;32805;53.556;9.944;2022-12-29T05:30:16;2.88;;;2.20;;
17141;SDS011;32805;53.556;9.944;2022-12-29T05:32:44;4.65;;;2.65;;
17141;SDS011;32805;53.556;9.944;2022-12-29T05:35:12;2.65;;;2.45;;
17141;SDS011;32805;53.556;9.944;2022-12-29T05:37:39;2.50;;;2.30;;
17141;SDS011;32805;53.556;9.944;2022-12-29T05:40:07;2.60;;;2.40;;
17141;SDS011;32805;53.556;9.944;2022-12-29T05:42:35;2.78;;;2.30;;
17141;SDS011;32805;53.556;9.944;2022-12-29T05:45:33;5.88;;;2.67;;
17141;SDS011;32805;53.556;9.944;2022-12-29T05:48:22;2.70;;;2.20;;
17141;SDS011;32805;53.556;9.944;2022-12-29T05:51:09;2.38;;;2.17;;
17141;SDS011;32805;53.556;9.944;2022-12-29T05:53:45;4.07;;;2.28;;
17141;SDS011;32805;53.556;9.944;2022-12-29T05:56:14;3.17;;;1.95;;
17141;SDS011;32805;53.556;9.944;2022-12-29T05:58:44;2.15;;;1.95;;
17141;SDS011;32805;53.556;9.944;2022-12-29T06:01:13;4.85;;;2.42;;
17141;SDS011;32805;53.556;9.944;2022-12-29T06:03:40;2.17;;;1.80;;
17141;SDS011;32805;53.556;9.944;2022-12-29T06:06:14;1.75;;;1.65;;
17141;SDS011;32805;53.556;9.944;2022-12-29T06:08:42;2.95;;;1.90;;
17141;SDS011;32805;53.556;9.944;2022-12-29T06:11:10;2.50;;;1.85;;
17141;SDS011;32805;53.556;9.944;2022-12-29T06:13:40;3.72;;;2.13;;
17141;SDS011;32805;53.556;9.944;2022-12-29T06:16:08;2.95;;;2.17;;
17141;SDS011;32805;53.556;9.944;2022-12-29T06:18:38;2.63;;;1.98;;
17141;SDS011;32805;53.556;9.944;2022-12-29T06:21:07;2.85;;;1.70;;
17141;SDS011;32805;53.556;9.944;2022-12-29T06:23:35;2.10;;;2.00;;
17141;SDS011;32805;53.556;9.944;2022-12-29T06:26:03;1.60;;;1.50;;
17141;SDS011;32805;53.556;9.944;2022-12-29T06:28:31;2.22;;;1.92;;
17141;SDS011;32805;53.556;9.944;2022-12-29T06:31:02;3.17;;;1.83;;
17141;SDS011;32805;53.556;9.944;2022-12-29T06:33:30;1.67;;;1.52;;
17141;SDS011;32805;53.556;9.944;2022-12-29T06:35:59;1.80;;;1.60;;
17141;SDS011;32805;53.556;9.944;2022-12-29T06:38:29;1.73;;;1.63;;
17141;SDS011;32805;53.556;9.944;2022-12-29T06:40:57;3.25;;;2.30;;
17141;SDS011;32805;53.556;9.944;2022-12-29T06:43:44;2.20;;;2.00;;
17141;SDS011;32805;53.556;9.944;2022-12-29T06:46:33;2.20;;;2.00;;
17141;SDS011;32805;53.556;9.944;2022-12-29T06:49:01;2.75;;;1.60;;
17141;SDS011;32805;53.556;9.944;2022-12-29T06:51:30;3.83;;;1.85;;
17141;SDS011;32805;53.556;9.944;2022-12-29T06:53:58;3.67;;;1.92;;
17141;SDS011;32805;53.556;9.944;2022-12-29T06:56:26;1.92;;;1.80;;
17141;SDS011;32805;53.556;9.944;2022-12-29T06:58:53;1.75;;;1.65;;
17141;SDS011;32805;53.556;9.944;2022-12-29T07:01:21;1.83;;;1.73;;
17141;SDS011;32805;53.556;9.944;2022-12-29T07:03:49;1.85;;;1.73;;
17141;SDS011;32805;53.556;9.944;2022-12-29T07:06:16;3.40;;;2.30;;
17141;SDS011;32805;53.556;9.944;2022-12-29T07:08:45;2.85;;;2.13;;
17141;SDS011;32805;53.556;9.944;2022-12-29T07:11:13;2.10;;;1.70;;
17141;SDS011;32805;53.556;9.944;2022-12-29T07:13:42;3.45;;;2.30;;
17141;SDS011;32805;53.556;9.944;2022-12-29T07:16:10;3.38;;;2.08;;
17141;SDS011;32805;53.556;9.944;2022-12-29T07:18:38;2.60;;;2.13;;
17141;SDS011;32805;53.556;9.944;2022-12-29T07:21:05;2.42;;;2.15;;
17141;SDS011;32805;53.556;9.944;2022-12-29T07:23:33;2.13;;;1.88;;
17141;SDS011;32805;53.556;9.944;2022-12-29T07:26:02;2.10;;;2.00;;
17141;SDS011;32805;53.556;9.944;2022-12-29T07:28:32;3.55;;;2.28;;
17141;SDS011;32805;53.556;9.944;2022-12-29T07:31:01;2.85;;;2.33;;
17141;SDS011;32805;53.556;9.944;2022-12-29T07:33:29;2.65;;;2.30;;
17141;SDS011;32805;53.556;9.944;2022-12-29T07:35:57;5.43;;;2.30;;
17141;SDS011;32805;53.556;9.944;2022-12-29T07:38:26;4.13;;;2.38;;
17141;SDS011;32805;53.556;9.944;2022-12-29T07:40:56;3.33;;;2.47;;
17141;SDS011;32805;53.556;9.944;2022-12-29T07:43:25;2.95;;;1.98;;
17141;SDS011;32805;53.556;9.944;2022-12-29T07:46:13;3.05;;;2.40;;
17141;SDS011;32805;53.556;9.944;2022-12-29T07:49:01;3.03;;;2.17;;
17141;SDS011;32805;53.556;9.944;2022-12-29T07:51:29;3.53;;;2.42;;
17141;SDS011;32805;53.556;9.944;2022-12-29T07:53:57;2.38;;;2.10;;
17141;SDS011;32805;53.556;9.944;2022-12-29T07:56:26;2.42;;;2.10;;
17141;SDS011;32805;53.556;9.944;2022-12-29T07:58:56;2.03;;;1.80;;
17141;SDS011;32805;53.556;9.944;2022-12-29T08:01:24;2.10;;;1.88;;
17141;SDS011;32805;53.556;9.944;2022-12-29T08:03:52;2.40;;;1.75;;
17141;SDS011;32805;53.556;9.944;2022-12-29T08:06:23;1.70;;;1.60;;
17141;SDS011;32805;53.556;9.944;2022-12-29T08:08:50;1.80;;;1.42;;
17141;SDS011;32805;53.556;9.944;2022-12-29T08:11:18;2.50;;;1.27;;
17141;SDS011;32805;53.556;9.944;2022-12-29T08:13:46;1.40;;;1.30;;
17141;SDS011;32805;53.556;9.944;2022-12-29T08:16:15;2.72;;;1.27;;
17141;SDS011;32805;53.556;9.944;2022-12-29T08:18:43;1.38;;;1.27;;
17141;SDS011;32805;53.556;9.944;2022-12-29T08:21:10;2.58;;;1.60;;
17141;SDS011;32805;53.556;9.944;2022-12-29T08:23:38;2.50;;;2.30;;
17141;SDS011;32805;53.556;9.944;2022-12-29T08:26:05;8.32;;;3.85;;
17141;SDS011;32805;53.556;9.944;2022-12-29T08:28:33;12.38;;;7.10;;
17141;SDS011;32805;53.556;9.944;2022-12-29T08:31:01;5.95;;;3.22;;
17141;SDS011;32805;53.556;9.944;2022-12-29T08:33:30;5.10;;;3.75;;
17141;SDS011;32805;53.556;9.944;2022-12-29T08:35:59;3.78;;;2.20;;
17141;SDS011;32805;53.556;9.944;2022-12-29T08:38:27;6.25;;;4.03;;
17141;SDS011;32805;53.556;9.944;2022-12-29T08:40:56;7.15;;;4.05;;
17141;SDS011;32805;53.556;9.944;2022-12-29T08:43:24;6.75;;;3.63;;
17141;SDS011;32805;53.556;9.944;2022-12-29T08:45:52;7.82;;;4.47;;
17141;SDS011;32805;53.556;9.944;2022-12-29T08:48:20;4.22;;;2.95;;
17141;SDS011;32805;53.556;9.944;2022-12-29T08:50:49;5.30;;;2.45;;
17141;SDS011;32805;53.556;9.944;2022-12-29T08:53:17;7.40;;;3.67;;
17141;SDS011;32805;53.556;9.944;2022-12-29T08:55:46;3.63;;;1.60;;
17141;SDS011;32805;53.556;9.944;2022-12-29T08:58:14;5.57;;;2.90;;
17141;SDS011;32805;53.556;9.944;2022-12-29T09:00:43;6.47;;;3.38;;
17141;SDS011;32805;53.556;9.944;2022-12-29T09:03:11;3.20;;;2.30;;
17141;SDS011;32805;53.556;9.944;2022-12-29T09:05:40;4.60;;;2.60;;
17141;SDS011;32805;53.556;9.944;2022-12-29T09:08:08;5.40;;;2.58;;
17141;SDS011;32805;53.556;9.944;2022-12-29T09:10:36;4.13;;;1.73;;
17141;SDS011;32805;53.556;9.944;2022-12-29T09:13:04;2.10;;;1.08;;
17141;SDS011;32805;53.556;9.944;2022-12-29T09:15:32;2.65;;;1.85;;
17141;SDS011;32805;53.556;9.944;2022-12-29T09:17:59;3.20;;;1.40;;
17141;SDS011;32805;53.556;9.944;2022-12-29T09:20:27;3.15;;;1.80;;
17141;SDS011;32805;53.556;9.944;2022-12-29T09:22:55;5.18;;;1.85;;
17141;SDS011;32805;53.556;9.944;2022-12-29T09:25:24;2.00;;;1.15;;
17141;SDS011;32805;53.556;9.944;2022-12-29T09:27:52;2.42;;;1.38;;
17141;SDS011;32805;53.556;9.944;2022-12-29T09:30:21;5.70;;;1.38;;
17141;SDS011;32805;53.556;9.944;2022-12-29T09:32:49;4.45;;;1.52;;
17141;SDS011;32805;53.556;9.944;2022-12-29T09:35:20;3.90;;;1.58;;
17141;SDS011;32805;53.556;9.944;2022-12-29T09:37:49;7.55;;;1.58;;
17141;SDS011;32805;53.556;9.944;2022-12-29T09:40:25;7.82;;;3.05;;
17141;SDS011;32805;53.556;9.944;2022-12-29T09:45:51;3.85;;;0.82;;
17141;SDS011;32805;53.556;9.944;2022-12-29T09:48:29;6.30;;;1.33;;
17141;SDS011;32805;53.556;9.944;2022-12-29T09:51:00;2.47;;;1.00;;
17141;SDS011;32805;53.556;9.944;2022-12-29T09:53:34;3.33;;;1.13;;
17141;SDS011;32805;53.556;9.944;2022-12-29T09:56:10;6.85;;;1.40;;
17141;SDS011;32805;53.556;9.944;2022-12-29T09:58:42;3.05;;;1.00;;
17141;SDS011;32805;53.556;9.944;2022-12-29T10:01:17;2.00;;;1.10;;
17141;SDS011;32805;53.556;9.944;2022-12-29T10:03:53;5.43;;;1.25;;
17141;SDS011;32805;53.556;9.944;2022-12-29T10:06:24;4.90;;;1.02;;
17141;SDS011;32805;53.556;9.944;2022-12-29T10:09:01;5.03;;;2.10;;
17141;SDS011;32805;53.556;9.944;2022-12-29T10:11:37;5.25;;;1.35;;
17141;SDS011;32805;53.556;9.944;2022-12-29T10:14:21;4.45;;;1.30;;
17141;SDS011;32805;53.556;9.944;2022-12-29T10:17:01;3.03;;;1.13;;
17141;SDS011;32805;53.556;9.944;2022-12-29T10:19:47;2.65;;;1.10;;
17141;SDS011;32805;53.556;9.944;2022-12-29T10:22:28;5.57;;;1.52;;
17141;SDS011;32805;53.556;9.944;2022-12-29T10:25:10;5.55;;;1.02;;
17141;SDS011;32805;53.556;9.944;2022-12-29T10:27:42;6.20;;;1.17;;
17141;SDS011;32805;53.556;9.944;2022-12-29T10:30:13;2.03;;;1.20;;
17141;SDS011;32805;53.556;9.944;2022-12-29T10:32:43;4.57;;;1.35;;
17141;SDS011;32805;53.556;9.944;2022-12-29T10:35:15;2.72;;;0.90;;
17141;SDS011;32805;53.556;9.944;2022-12-29T10:37:46;6.00;;;1.45;;
17141;SDS011;32805;53.556;9.944;2022-12-29T10:40:19;2.15;;;0.98;;
17141;SDS011;32805;53.556;9.944;2022-12-29T10:42:53;3.83;;;1.00;;
17141;SDS011;32805;53.556;9.944;2022-12-29T10:45:25;3.67;;;1.10;;
17141;SDS011;32805;53.556;9.944;2022-12-29T10:47:57;3.60;;;1.00;;
17141;SDS011;32805;53.556;9.944;2022-12-29T10:50:29;4.68;;;1.30;;
17141;SDS011;32805;53.556;9.944;2022-12-29T10:52:57;3.88;;;1.10;;
17141;SDS011;32805;53.556;9.944;2022-12-29T10:55:30;4.00;;;1.23;;
17141;SDS011;32805;53.556;9.944;2022-12-29T10:58:02;3.83;;;0.95;;
17141;SDS011;32805;53.556;9.944;2022-12-29T11:00:33;5.22;;;1.58;;
17141;SDS011;32805;53.556;9.944;2022-12-29T11:03:05;6.88;;;1.20;;
17141;SDS011;32805;53.556;9.944;2022-12-29T11:05:57;4.18;;;1.30;;
17141;SDS011;32805;53.556;9.944;2022-12-29T11:08:33;4.03;;;1.42;;
17141;SDS011;32805;53.556;9.944;2022-12-29T11:11:05;7.70;;;2.08;;
17141;SDS011;32805;53.556;9.944;2022-12-29T11:13:46;4.65;;;1.25;;
17141;SDS011;32805;53.556;9.944;2022-12-29T11:16:21;6.40;;;1.45;;
17141;SDS011;32805;53.556;9.944;2022-12-29T11:18:57;5.10;;;1.30;;
17141;SDS011;32805;53.556;9.944;2022-12-29T11:21:27;3.78;;;0.90;;
17141;SDS011;32805;53.556;9.944;2022-12-29T11:24:01;7.10;;;1.48;;
17141;SDS011;32805;53.556;9.944;2022-12-29T11:26:31;4.22;;;1.33;;
17141;SDS011;32805;53.556;9.944;2022-12-29T11:31:52;6.60;;;1.33;;
17141;SDS011;32805;53.556;9.944;2022-12-29T11:34:22;6.93;;;1.05;;
17141;SDS011;32805;53.556;9.944;2022-12-29T11:36:53;2.35;;;0.70;;
17141;SDS011;32805;53.556;9.944;2022-12-29T11:39:29;4.82;;;1.17;;
17141;SDS011;32805;53.556;9.944;2022-12-29T11:42:00;2.53;;;1.20;;
17141;SDS011;32805;53.556;9.944;2022-12-29T11:44:34;2.65;;;0.70;;
17141;SDS011;32805;53.556;9.944;2022-12-29T11:47:05;3.75;;;0.80;;
17141;SDS011;32805;53.556;9.944;2022-12-29T11:49:36;4.32;;;0.75;;
17141;SDS011;32805;53.556;9.944;2022-12-29T11:52:03;2.10;;;0.85;;
17141;SDS011;32805;53.556;9.944;2022-12-29T11:54:32;2.38;;;0.75;;
17141;SDS011;32805;53.556;9.944;2022-12-29T11:57:10;1.17;;;0.50;;
17141;SDS011;32805;53.556;9.944;2022-12-29T11:59:43;5.50;;;0.90;;
17141;SDS011;32805;53.556;9.944;2022-12-29T12:05:11;2.72;;;0.70;;
17141;SDS011;32805;53.556;9.944;2022-12-29T12:07:45;4.00;;;1.00;;
17141;SDS011;32805;53.556;9.944;2022-12-29T12:10:17;3.83;;;1.00;;
17141;SDS011;32805;53.556;9.944;2022-12-29T12:12:55;6.05;;;1.23;;
17141;SDS011;32805;53.556;9.944;2022-12-29T12:15:31;4.68;;;1.27;;
17141;SDS011;32805;53.556;9.944;2022-12-29T12:18:12;4.15;;;1.02;;
17141;SDS011;32805;53.556;9.944;2022-12-29T12:20:46;4.50;;;1.10;;
17141;SDS011;32805;53.556;9.944;2022-12-29T12:23:36;4.70;;;0.93;;
17141;SDS011;32805;53.556;9.944;2022-12-29T12:26:11;5.70;;;1.20;;
17141;SDS011;32805;53.556;9.944;2022-12-29T12:28:42;5.50;;;1.13;;
17141;SDS011;32805;53.556;9.944;2022-12-29T12:31:21;3.78;;;1.05;;
17141;SDS011;32805;53.556;9.944;2022-12-29T12:34:03;4.68;;;1.15;;
17141;SDS011;32805;53.556;9.944;2022-12-29T12:36:43;4.10;;;1.30;;
17141;SDS011;32805;53.556;9.944;2022-12-29T12:39:22;2.13;;;0.90;;
17141;SDS011;32805;53.556;9.944;2022-12-29T12:41:57;4.40;;;1.10;;
17141;SDS011;32805;53.556;9.944;2022-12-29T12:44:43;4.80;;;1.30;;
17141;SDS011;32805;53.556;9.944;2022-12-29T12:47:26;2.85;;;1.00;;
17141;SDS011;32805;53.556;9.944;2022-12-29T12:50:18;4.88;;;1.10;;
17141;SDS011;32805;53.556;9.944;2022-12-29T12:53:02;4.30;;;1.10;;
17141;SDS011;32805;53.556;9.944;2022-12-29T12:55:53;6.47;;;1.08;;
17141;SDS011;32805;53.556;9.944;2022-12-29T12:58:32;5.10;;;1.35;;
17141;SDS011;32805;53.556;9.944;2022-12-29T13:01:11;7.75;;;1.00;;
17141;SDS011;32805;53.556;9.944;2022-12-29T13:03:53;3.38;;;0.90;;
17141;SDS011;32805;53.556;9.944;2022-12-29T13:06:35;6.13;;;1.50;;
17141;SDS011;32805;53.556;9.944;2022-12-29T13:09:21;4.22;;;1.20;;
17141;SDS011;32805;53.556;9.944;2022-12-29T13:12:01;3.38;;;1.13;;
17141;SDS011;32805;53.556;9.944;2022-12-29T13:14:40;4.03;;;1.15;;
17141;SDS011;32805;53.556;9.944;2022-12-29T13:17:16;6.50;;;1.50;;
17141;SDS011;32805;53.556;9.944;2022-12-29T13:19:50;5.78;;;1.40;;
17141;SDS011;32805;53.556;9.944;2022-12-29T13:22:24;3.38;;;1.55;;
17141;SDS011;32805;53.556;9.944;2022-12-29T13:25:04;4.55;;;1.45;;
17141;SDS011;32805;53.556;9.944;2022-12-29T13:27:47;5.57;;;1.70;;
17141;SDS011;32805;53.556;9.944;2022-12-29T13:30:20;3.95;;;1.50;;
17141;SDS011;32805;53.556;9.944;2022-12-29T13:32:53;5.43;;;1.95;;
17141;SDS011;32805;53.556;9.944;2022-12-29T13:35:30;6.78;;;2.58;;
17141;SDS011;32805;53.556;9.944;2022-12-29T13:38:12;4.88;;;1.90;;
17141;SDS011;32805;53.556;9.944;2022-12-29T13:40:45;3.35;;;1.88;;
17141;SDS011;32805;53.556;9.944;2022-12-29T13:43:17;3.67;;;1.20;;
17141;SDS011;32805;53.556;9.944;2022-12-29T13:45:45;3.47;;;1.50;;
17141;SDS011;32805;53.556;9.944;2022-12-29T13:48:23;6.43;;;2.30;;
17141;SDS011;32805;53.556;9.944;2022-12-29T13:50:59;5.40;;;2.13;;
17141;SDS011;32805;53.556;9.944;2022-12-29T13:53:29;5.00;;;1.75;;
17141;SDS011;32805;53.556;9.944;2022-12-29T13:56:04;7.15;;;2.17;;
17141;SDS011;32805;53.556;9.944;2022-12-29T13:58:36;5.80;;;1.70;;
17141;SDS011;32805;53.556;9.944;2022-12-29T14:01:10;10.57;;;4.63;;
17141;SDS011;32805;53.556;9.944;2022-12-29T14:03:46;14.38;;;4.47;;
17141;SDS011;32805;53.556;9.944;2022-12-29T14:06:20;7.63;;;2.08;;
17141;SDS011;32805;53.556;9.944;2022-12-29T14:08:51;7.75;;;2.20;;
17141;SDS011;32805;53.556;9.944;2022-12-29T14:11:21;9.15;;;1.75;;
17141;SDS011;32805;53.556;9.944;2022-12-29T14:13:51;15.95;;;2.05;;
17141;SDS011;32805;53.556;9.944;2022-12-29T14:16:25;7.60;;;1.33;;
17141;SDS011;32805;53.556;9.944;2022-12-29T14:19:06;5.13;;;1.10;;
17141;SDS011;32805;53.556;9.944;2022-12-29T14:21:41;3.55;;;1.08;;
17141;SDS011;32805;53.556;9.944;2022-12-29T14:33:25;9.15;;;2.13;;
17141;SDS011;32805;53.556;9.944;2022-12-29T14:35:55;4.40;;;1.40;;
17141;SDS011;32805;53.556;9.944;2022-12-29T14:38:30;8.27;;;1.58;;
17141;SDS011;32805;53.556;9.944;2022-12-29T14:41:15;2.47;;;1.40;;
17141;SDS011;32805;53.556;9.944;2022-12-29T14:43:57;2.47;;;0.98;;
17141;SDS011;32805;53.556;9.944;2022-12-29T14:46:42;5.93;;;1.60;;
17141;SDS011;32805;53.556;9.944;2022-12-29T14:49:14;7.40;;;2.13;;
17141;SDS011;32805;53.556;9.944;2022-12-29T14:51:45;6.28;;;2.20;;
17141;SDS011;32805;53.556;9.944;2022-12-29T14:57:22;7.30;;;1.65;;
17141;SDS011;32805;53.556;9.944;2022-12-29T14:59:55;7.80;;;1.73;;
17141;SDS011;32805;53.556;9.944;2022-12-29T15:02:33;4.97;;;1.75;;
17141;SDS011;32805;53.556;9.944;2022-12-29T15:05:10;6.20;;;1.85;;
17141;SDS011;32805;53.556;9.944;2022-12-29T15:07:52;7.85;;;2.03;;
17141;SDS011;32805;53.556;9.944;2022-12-29T15:10:21;8.98;;;2.45;;
17141;SDS011;32805;53.556;9.944;2022-12-29T15:12:52;9.35;;;2.30;;
17141;SDS011;32805;53.556;9.944;2022-12-29T15:15:23;7.80;;;3.65;;
17141;SDS011;32805;53.556;9.944;2022-12-29T15:17:53;11.82;;;3.33;;
17141;SDS011;32805;53.556;9.944;2022-12-29T15:20:22;9.20;;;2.90;;
17141;SDS011;32805;53.556;9.944;2022-12-29T15:22:52;10.18;;;4.32;;
17141;SDS011;32805;53.556;9.944;2022-12-29T15:25:24;11.07;;;3.53;;
17141;SDS011;32805;53.556;9.944;2022-12-29T15:27:54;7.68;;;2.75;;
17141;SDS011;32805;53.556;9.944;2022-12-29T15:30:26;6.25;;;2.47;;
17141;SDS011;32805;53.556;9.944;2022-12-29T15:32:54;6.82;;;3.55;;
17141;SDS011;32805;53.556;9.944;2022-12-29T15:35:23;8.00;;;2.70;;
17141;SDS011;32805;53.556;9.944;2022-12-29T15:37:54;6.13;;;2.95;;
17141;SDS011;32805;53.556;9.944;2022-12-29T15:40:24;8.45;;;2.70;;
17141;SDS011;32805;53.556;9.944;2022-12-29T15:43:04;9.73;;;3.25;;
17141;SDS011;32805;53.556;9.944;2022-12-29T15:45:42;9.85;;;3.60;;
17141;SDS011;32805;53.556;9.944;2022-12-29T15:48:13;16.92;;;6.90;;
17141;SDS011;32805;53.556;9.944;2022-12-29T15:50:44;9.73;;;4.60;;
17141;SDS011;32805;53.556;9.944;2022-12-29T15:53:16;10.02;;;4.25;;